Wetterdaten: Woche 13.02.06 - 19.02.06 (KW7)
Datum Zeit Temperatur Luftfeuchte Luftdruck Niederschlag Wind Richtung Sonne Solar Taupunkt Windchill
13.02.2006 00:00 -7.5 C 78 % 1028.1 hPa 0.0 l/m 0.5 km/h (0 Bft) O 0.00 h 0 W/m -10.6 C -7.6 C
13.02.2006 01:00 -7.9 C 78 % 1028.1 hPa 0.0 l/m 1.3 km/h (1 Bft) O 0.00 h 0 W/m -11.0 C -8.1 C
13.02.2006 02:00 -8.2 C 78 % 1028.0 hPa 0.0 l/m 0.0 km/h (0 Bft) N 0.00 h 0 W/m -11.3 C -8.2 C
13.02.2006 03:00 -7.6 C 80 % 1027.0 hPa 0.0 l/m 0.7 km/h (0 Bft) O 0.00 h 0 W/m -10.5 C -7.9 C
13.02.2006 04:00 -6.2 C 82 % 1026.8 hPa 0.0 l/m 0.0 km/h (0 Bft) N 0.00 h 0 W/m -8.7 C -6.2 C
13.02.2006 05:00 -5.6 C 82 % 1026.7 hPa 0.0 l/m 0.2 km/h (0 Bft) O 0.00 h 0 W/m -8.1 C -5.6 C
13.02.2006 06:00 -4.9 C 81 % 1026.6 hPa 0.0 l/m 0.0 km/h (0 Bft) N 0.00 h 0 W/m -7.7 C -4.9 C
13.02.2006 07:00 -4.6 C 79 % 1026.6 hPa 0.0 l/m 0.0 km/h (0 Bft) N 0.00 h 5 W/m -7.7 C -4.6 C
13.02.2006 08:00 -4.2 C 77 % 1026.5 hPa 0.0 l/m 0.8 km/h (0 Bft) O 0.00 h 25 W/m -7.6 C -4.5 C
13.02.2006 09:00 -3.6 C 75 % 1026.4 hPa 0.0 l/m 0.3 km/h (0 Bft) O 0.00 h 74 W/m -7.4 C -3.6 C
13.02.2006 10:00 -3.0 C 71 % 1026.3 hPa 0.0 l/m 1.4 km/h (1 Bft) O-SO 0.00 h 104 W/m -7.5 C -3.4 C
13.02.2006 11:00 -2.3 C 68 % 1026.2 hPa 0.0 l/m 2.7 km/h (1 Bft) O-SO 0.00 h 149 W/m -7.3 C -3.2 C
13.02.2006 12:00 -1.7 C 66 % 1026.1 hPa 0.0 l/m 4.1 km/h (1 Bft) O-SO 0.00 h 205 W/m -7.3 C -3.0 C
13.02.2006 13:00 -1.5 C 65 % 1025.1 hPa 0.0 l/m 3.1 km/h (1 Bft) W-NW 0.27 h 261 W/m -7.3 C -2.5 C
13.02.2006 14:00 -0.2 C 62 % 1024.9 hPa 0.0 l/m 6.2 km/h (2 Bft) O-SO 1.00 h 390 W/m -6.7 C -2.1 C
13.02.2006 15:00 0.7 C 56 % 1024.3 hPa 0.0 l/m 2.7 km/h (1 Bft) SO 1.00 h 291 W/m -7.0 C 0.0 C
13.02.2006 16:00 0.5 C 58 % 1023.7 hPa 0.0 l/m 0.8 km/h (0 Bft) W 0.80 h 140 W/m -6.7 C 0.5 C
13.02.2006 17:00 -0.8 C 64 % 1023.9 hPa 0.0 l/m 0.0 km/h (0 Bft) N 0.00 h 17 W/m -6.7 C -0.8 C
13.02.2006 18:00 -0.7 C 68 % 1023.9 hPa 0.0 l/m 0.0 km/h (0 Bft) N 0.00 h 0 W/m -5.8 C -0.7 C
13.02.2006 19:00 -0.5 C 67 % 1024.4 hPa 0.0 l/m 0.0 km/h (0 Bft) N 0.00 h 0 W/m -5.9 C -0.5 C
13.02.2006 20:00 -0.5 C 69 % 1024.8 hPa 0.0 l/m 0.0 km/h (0 Bft) N 0.00 h 0 W/m -5.4 C -0.5 C
13.02.2006 21:00 -0.5 C 70 % 1024.9 hPa 0.0 l/m 0.0 km/h (0 Bft) N 0.00 h 0 W/m -5.4 C -0.5 C
13.02.2006 22:00 -0.8 C 72 % 1024.9 hPa 0.0 l/m 0.0 km/h (0 Bft) N 0.00 h 0 W/m -5.2 C -0.8 C
13.02.2006 23:00 -0.6 C 70 % 1024.3 hPa 0.0 l/m 0.0 km/h (0 Bft) N 0.00 h 0 W/m -5.4 C -0.6 C
14.02.2006 00:00 -0.6 C 71 % 1023.9 hPa 0.0 l/m 0.0 km/h (0 Bft) N 0.00 h 0 W/m -5.1 C -0.6 C
14.02.2006 01:00 -0.6 C 70 % 1023.9 hPa 0.0 l/m 0.5 km/h (0 Bft) S 0.00 h 0 W/m -5.4 C -0.6 C
14.02.2006 02:00 -0.6 C 71 % 1023.9 hPa 0.0 l/m 0.0 km/h (0 Bft) N 0.00 h 0 W/m -5.3 C -0.6 C
14.02.2006 03:00 -0.7 C 76 % 1023.5 hPa 0.0 l/m 0.0 km/h (0 Bft) N 0.00 h 0 W/m -4.4 C -0.7 C
14.02.2006 04:00 -0.7 C 78 % 1022.9 hPa 0.0 l/m 0.1 km/h (0 Bft) S 0.00 h 0 W/m -4.2 C -0.7 C
14.02.2006 05:00 -0.6 C 77 % 1022.8 hPa 0.0 l/m 0.1 km/h (0 Bft) S 0.00 h 0 W/m -4.2 C -0.6 C
14.02.2006 06:00 -0.5 C 76 % 1023.2 hPa 0.0 l/m 0.0 km/h (0 Bft) N 0.00 h 0 W/m -4.2 C -0.5 C
14.02.2006 07:00 -0.5 C 74 % 1023.9 hPa 0.0 l/m 0.0 km/h (0 Bft) N 0.00 h 6 W/m -4.6 C -0.5 C
14.02.2006 08:00 -0.2 C 73 % 1023.8 hPa 0.0 l/m 0.0 km/h (0 Bft) N 0.00 h 41 W/m -4.4 C -0.2 C
14.02.2006 09:00 0.4 C 72 % 1023.7 hPa 0.0 l/m 0.4 km/h (0 Bft) W 0.00 h 76 W/m -4.1 C 0.4 C
14.02.2006 10:00 1.3 C 68 % 1023.6 hPa 0.0 l/m 0.2 km/h (0 Bft) W 0.00 h 121 W/m -4.0 C 1.2 C
14.02.2006 11:00 2.3 C 65 % 1023.5 hPa 0.0 l/m 0.0 km/h (0 Bft) W 0.00 h 147 W/m -3.6 C 2.3 C
14.02.2006 12:00 3.5 C 62 % 1023.3 hPa 0.0 l/m 0.7 km/h (0 Bft) NW 0.00 h 227 W/m -3.1 C 3.4 C
14.02.2006 13:00 5.1 C 58 % 1022.3 hPa 0.0 l/m 2.5 km/h (1 Bft) W-NW 1.00 h 409 W/m -2.5 C 4.6 C
14.02.2006 14:00 6.5 C 54 % 1021.8 hPa 0.0 l/m 0.4 km/h (0 Bft) W-NW 1.00 h 311 W/m -2.0 C 6.5 C
14.02.2006 15:00 6.9 C 53 % 1021.2 hPa 0.0 l/m 0.5 km/h (0 Bft) NW 0.30 h 171 W/m -1.9 C 6.9 C
14.02.2006 16:00 6.1 C 57 % 1020.8 hPa 0.0 l/m 0.7 km/h (0 Bft) NW 0.00 h 52 W/m -1.7 C 6.0 C
14.02.2006 17:00 4.7 C 63 % 1021.0 hPa 0.0 l/m 0.4 km/h (0 Bft) NW 0.00 h 16 W/m -1.6 C 4.6 C
14.02.2006 18:00 3.2 C 71 % 1021.2 hPa 0.0 l/m 2.2 km/h (1 Bft) NW 0.00 h 0 W/m -1.6 C 2.8 C
14.02.2006 19:00 2.2 C 76 % 1021.4 hPa 0.0 l/m 1.9 km/h (1 Bft) NO 0.00 h 0 W/m -1.6 C 1.7 C
14.02.2006 20:00 1.5 C 80 % 1021.5 hPa 0.0 l/m 0.7 km/h (0 Bft) NO 0.00 h 0 W/m -1.6 C 1.4 C
14.02.2006 21:00 0.5 C 82 % 1021.5 hPa 0.0 l/m 0.5 km/h (0 Bft) NO 0.00 h 0 W/m -2.1 C 0.5 C
14.02.2006 22:00 -0.3 C 86 % 1021.7 hPa 0.0 l/m 1.4 km/h (1 Bft) NO 0.00 h 0 W/m -2.4 C -0.7 C
14.02.2006 23:00 -0.8 C 89 % 1021.6 hPa 0.0 l/m 0.3 km/h (0 Bft) O-SO 0.00 h 0 W/m -2.4 C -0.8 C
15.02.2006 00:00 -0.2 C 91 % 1020.7 hPa 0.0 l/m 0.4 km/h (0 Bft) O-SO 0.00 h 0 W/m -1.5 C -0.2 C
15.02.2006 01:00 0.5 C 91 % 1019.8 hPa 0.0 l/m 0.2 km/h (0 Bft) O 0.00 h 0 W/m -0.8 C 0.5 C
15.02.2006 02:00 0.7 C 91 % 1019.3 hPa 0.0 l/m 0.0 km/h (0 Bft) N 0.00 h 0 W/m -0.6 C 0.7 C
15.02.2006 03:00 0.6 C 91 % 1018.5 hPa 0.0 l/m 0.0 km/h (0 Bft) O 0.00 h 0 W/m -0.6 C 0.6 C
15.02.2006 04:00 1.5 C 92 % 1018.3 hPa 0.6 l/m 4.6 km/h (1 Bft) O-SO 0.00 h 0 W/m 0.4 C 0.3 C
15.02.2006 05:00 1.7 C 92 % 1017.3 hPa 0.0 l/m 0.9 km/h (0 Bft) O-SO 0.00 h 0 W/m 0.5 C 1.7 C
15.02.2006 06:00 1.5 C 91 % 1016.4 hPa 0.0 l/m 2.8 km/h (1 Bft) O-SO 0.00 h 0 W/m 0.2 C 0.9 C
15.02.2006 07:00 1.6 C 91 % 1015.1 hPa 0.0 l/m 0.8 km/h (0 Bft) O-SO 0.00 h 3 W/m 0.3 C 1.4 C
15.02.2006 08:00 1.5 C 91 % 1014.4 hPa 0.0 l/m 1.8 km/h (1 Bft) O 0.00 h 18 W/m 0.2 C 1.2 C
15.02.2006 09:00 2.3 C 89 % 1013.5 hPa 0.0 l/m 1.7 km/h (1 Bft) O-SO 0.00 h 43 W/m 0.7 C 2.0 C
15.02.2006 10:00 2.8 C 90 % 1012.5 hPa 0.0 l/m 0.0 km/h (0 Bft) N 0.00 h 101 W/m 1.3 C 2.8 C
15.02.2006 11:00 3.1 C 89 % 1011.9 hPa 0.0 l/m 0.0 km/h (0 Bft) N 0.00 h 77 W/m 1.5 C 3.1 C
15.02.2006 12:00 3.3 C 93 % 1010.8 hPa 1.3 l/m 1.3 km/h (1 Bft) SO 0.00 h 47 W/m 2.3 C 3.0 C
15.02.2006 13:00 3.6 C 96 % 1010.3 hPa 1.6 l/m 0.2 km/h (0 Bft) W 0.00 h 44 W/m 2.9 C 3.6 C
15.02.2006 14:00 5.0 C 93 % 1009.0 hPa 0.3 l/m 2.6 km/h (1 Bft) SO 0.00 h 39 W/m 4.0 C 4.5 C
15.02.2006 15:00 4.8 C 91 % 1008.0 hPa 0.6 l/m 4.6 km/h (1 Bft) W 0.00 h 31 W/m 3.4 C 3.9 C
15.02.2006 16:00 5.1 C 91 % 1007.5 hPa 0.3 l/m 5.8 km/h (2 Bft) O-SO 0.00 h 18 W/m 3.8 C 3.9 C
15.02.2006 17:00 4.5 C 90 % 1007.5 hPa 0.0 l/m 11.5 km/h (2 Bft) S 0.00 h 5 W/m 3.0 C 2.1 C
15.02.2006 18:00 4.4 C 91 % 1007.6 hPa 0.6 l/m 10.8 km/h (2 Bft) S-SO 0.00 h 0 W/m 3.0 C 1.9 C
15.02.2006 19:00 4.7 C 91 % 1006.7 hPa 0.3 l/m 16.2 km/h (3 Bft) SO 0.00 h 0 W/m 3.3 C 1.4 C
15.02.2006 20:00 5.0 C 89 % 1006.2 hPa 0.0 l/m 15.7 km/h (3 Bft) S-SO 0.00 h 0 W/m 3.3 C 1.9 C
15.02.2006 21:00 5.2 C 83 % 1005.0 hPa 0.3 l/m 11.6 km/h (2 Bft) SO 0.00 h 0 W/m 2.6 C 2.8 C
15.02.2006 22:00 4.6 C 86 % 1004.1 hPa 0.3 l/m 3.6 km/h (1 Bft) SO 0.00 h 0 W/m 2.4 C 4.0 C
15.02.2006 23:00 4.6 C 88 % 1003.3 hPa 0.6 l/m 6.9 km/h (2 Bft) SO 0.00 h 0 W/m 2.7 C 3.1 C
16.02.2006 00:00 4.3 C 90 % 1002.0 hPa 1.3 l/m 6.5 km/h (2 Bft) SO 0.00 h 0 W/m 2.8 C 2.9 C
16.02.2006 01:00 4.4 C 92 % 1000.7 hPa 2.0 l/m 10.8 km/h (2 Bft) SO 0.00 h 0 W/m 3.2 C 2.1 C
16.02.2006 02:00 4.8 C 93 % 999.1 hPa 1.0 l/m 20.2 km/h (4 Bft) SO 0.00 h 0 W/m 3.8 C 1.0 C
16.02.2006 03:00 5.3 C 93 % 997.5 hPa 4.9 l/m 14.6 km/h (3 Bft) S 0.00 h 0 W/m 4.2 C 2.5 C
16.02.2006 04:00 5.9 C 94 % 996.4 hPa 2.6 l/m 12.3 km/h (3 Bft) S-SO 0.00 h 0 W/m 5.0 C 3.6 C
16.02.2006 05:00 6.7 C 93 % 995.8 hPa 2.0 l/m 17.8 km/h (3 Bft) W-SW 0.00 h 0 W/m 5.7 C 3.7 C
16.02.2006 06:00 7.1 C 91 % 995.7 hPa 2.0 l/m 12.6 km/h (3 Bft) W 0.00 h 0 W/m 5.8 C 4.8 C
16.02.2006 07:00 7.5 C 90 % 994.8 hPa 0.3 l/m 15.2 km/h (3 Bft) W 0.00 h 4 W/m 6.0 C 4.9 C
16.02.2006 08:00 7.4 C 86 % 995.5 hPa 2.0 l/m 5.6 km/h (1 Bft) W 0.00 h 18 W/m 5.2 C 6.5 C
16.02.2006 09:00 7.7 C 91 % 996.3 hPa 3.9 l/m 0.9 km/h (0 Bft) W-NW 0.00 h 26 W/m 6.3 C 7.6 C
16.02.2006 10:00 8.0 C 93 % 996.7 hPa 3.3 l/m 12.5 km/h (3 Bft) W-NW 0.00 h 46 W/m 6.9 C 6.3 C
16.02.2006 11:00 8.2 C 91 % 997.6 hPa 1.3 l/m 26.8 km/h (4 Bft) W-NW 0.00 h 88 W/m 6.8 C 4.5 C
16.02.2006 12:00 8.6 C 84 % 997.8 hPa 0.0 l/m 13.1 km/h (3 Bft) W-NW 0.00 h 164 W/m 6.1 C 6.8 C
16.02.2006 13:00 9.0 C 76 % 997.7 hPa 0.0 l/m 13.8 km/h (3 Bft) W-NW 0.23 h 236 W/m 5.0 C 7.0 C
16.02.2006 14:00 9.7 C 68 % 997.1 hPa 0.0 l/m 17.0 km/h (3 Bft) W-NW 0.37 h 252 W/m 4.1 C 7.5 C
16.02.2006 15:00 10.5 C 62 % 996.3 hPa 0.0 l/m 10.4 km/h (2 Bft) W-NW 0.50 h 254 W/m 3.5 C 10.0 C
16.02.2006 16:00 9.4 C 66 % 995.6 hPa 0.0 l/m 4.2 km/h (1 Bft) SO 0.00 h 81 W/m 3.5 C 9.0 C
16.02.2006 17:00 7.9 C 69 % 994.8 hPa 0.0 l/m 2.6 km/h (1 Bft) SO 0.07 h 21 W/m 2.6 C 7.5 C
16.02.2006 18:00 6.4 C 74 % 994.8 hPa 0.0 l/m 5.3 km/h (1 Bft) SO 0.00 h 0 W/m 2.1 C 5.5 C
16.02.2006 19:00 7.1 C 74 % 995.1 hPa 1.6 l/m 15.0 km/h (3 Bft) SO 0.00 h 0 W/m 2.7 C 4.8 C
16.02.2006 20:00 5.3 C 86 % 996.2 hPa 3.3 l/m 12.2 km/h (2 Bft) NW 0.00 h 0 W/m 3.2 C 3.4 C
16.02.2006 21:00 5.4 C 91 % 996.0 hPa 0.6 l/m 6.2 km/h (2 Bft) S-SO 0.00 h 0 W/m 4.1 C 4.2 C
16.02.2006 22:00 5.3 C 94 % 996.0 hPa 0.6 l/m 5.9 km/h (2 Bft) S 0.00 h 0 W/m 4.4 C 4.3 C
16.02.2006 23:00 5.0 C 94 % 996.0 hPa 2.0 l/m 4.7 km/h (1 Bft) S-SO 0.00 h 0 W/m 4.2 C 4.1 C
17.02.2006 00:00 5.0 C 95 % 996.0 hPa 0.3 l/m 2.6 km/h (1 Bft) SO 0.00 h 0 W/m 4.3 C 4.6 C
17.02.2006 01:00 4.9 C 94 % 997.2 hPa 0.6 l/m 22.1 km/h (4 Bft) W-NW 0.00 h 0 W/m 3.9 C 1.2 C
17.02.2006 02:00 4.5 C 86 % 998.2 hPa 0.3 l/m 28.0 km/h (4 Bft) W-NW 0.00 h 0 W/m 2.4 C -0.4 C
17.02.2006 03:00 4.6 C 72 % 998.5 hPa 0.0 l/m 16.4 km/h (3 Bft) W 0.00 h 0 W/m 0.0 C 1.4 C
17.02.2006 04:00 3.9 C 76 % 999.2 hPa 0.0 l/m 5.8 km/h (2 Bft) W-NW 0.00 h 0 W/m 0.1 C 2.6 C
17.02.2006 05:00 3.4 C 82 % 999.4 hPa 0.3 l/m 2.3 km/h (1 Bft) W 0.00 h 0 W/m 0.6 C 3.1 C
17.02.2006 06:00 3.3 C 88 % 999.4 hPa 0.0 l/m 3.9 km/h (1 Bft) W 0.00 h 0 W/m 1.4 C 2.5 C
17.02.2006 07:00 3.4 C 85 % 999.4 hPa 0.0 l/m 4.2 km/h (1 Bft) S-SO 0.00 h 7 W/m 1.1 C 2.4 C
17.02.2006 08:00 3.4 C 82 % 999.6 hPa 0.0 l/m 11.2 km/h (2 Bft) SO 0.00 h 32 W/m 0.6 C 0.8 C
17.02.2006 09:00 3.9 C 80 % 1000.1 hPa 0.0 l/m 11.3 km/h (2 Bft) SO 0.33 h 161 W/m 0.8 C 1.4 C
17.02.2006 10:00 4.9 C 75 % 999.2 hPa 0.0 l/m 13.1 km/h (3 Bft) SO 0.07 h 203 W/m 0.8 C 2.2 C
17.02.2006 11:00 5.3 C 71 % 999.6 hPa 0.6 l/m 15.0 km/h (3 Bft) W 0.07 h 142 W/m 0.4 C 2.3 C
17.02.2006 12:00 4.5 C 83 % 1000.3 hPa 0.0 l/m 15.8 km/h (3 Bft) S 0.15 h 194 W/m 1.8 C 1.1 C
17.02.2006 13:00 4.2 C 83 % 1000.3 hPa 0.3 l/m 12.6 km/h (3 Bft) SO 0.00 h 143 W/m 1.6 C 1.4 C
17.02.2006 14:00 3.9 C 84 % 1000.9 hPa 2.9 l/m 9.3 km/h (2 Bft) S-SO 0.07 h 76 W/m 1.6 C 1.9 C
17.02.2006 15:00 4.7 C 85 % 1001.3 hPa 0.0 l/m 7.4 km/h (2 Bft) SO 0.50 h 220 W/m 2.5 C 3.1 C
17.02.2006 16:00 5.2 C 77 % 1001.2 hPa 0.0 l/m 12.1 km/h (2 Bft) S 0.22 h 112 W/m 1.4 C 2.6 C
17.02.2006 17:00 4.8 C 75 % 1002.3 hPa 0.0 l/m 10.4 km/h (2 Bft) S-SO 0.00 h 9 W/m 0.8 C 2.7 C
17.02.2006 18:00 3.9 C 81 % 1003.3 hPa 0.0 l/m 5.5 km/h (1 Bft) W-SW 0.00 h 0 W/m 0.9 C 2.8 C
17.02.2006 19:00 4.1 C 78 % 1003.5 hPa 0.0 l/m 3.6 km/h (1 Bft) W 0.00 h 0 W/m 0.6 C 3.5 C
17.02.2006 20:00 4.4 C 73 % 1003.6 hPa 0.0 l/m 13.1 km/h (3 Bft) NW 0.00 h 0 W/m -0.1 C 2.3 C
17.02.2006 21:00 3.9 C 80 % 1003.8 hPa 0.3 l/m 4.0 km/h (1 Bft) N-NW 0.00 h 0 W/m 0.7 C 3.1 C
17.02.2006 22:00 3.5 C 82 % 1003.5 hPa 0.0 l/m 3.3 km/h (1 Bft) NW 0.00 h 0 W/m 0.7 C 2.8 C
17.02.2006 23:00 3.6 C 84 % 1003.5 hPa 0.3 l/m 5.7 km/h (1 Bft) SO 0.00 h 0 W/m 1.1 C 2.3 C
18.02.2006 00:00 3.9 C 85 % 1003.5 hPa 0.0 l/m 11.2 km/h (2 Bft) SO 0.00 h 0 W/m 1.6 C 1.1 C
18.02.2006 01:00 3.8 C 87 % 1003.5 hPa 0.6 l/m 7.9 km/h (2 Bft) SO 0.00 h 0 W/m 1.9 C 1.8 C
18.02.2006 02:00 3.4 C 89 % 1003.5 hPa 2.0 l/m 7.2 km/h (2 Bft) SO 0.00 h 0 W/m 1.8 C 1.6 C
18.02.2006 03:00 2.7 C 90 % 1003.0 hPa 1.0 l/m 1.7 km/h (1 Bft) SO 0.00 h 0 W/m 1.2 C 2.5 C
18.02.2006 04:00 2.4 C 91 % 1002.1 hPa 0.6 l/m 0.5 km/h (0 Bft) O-SO 0.00 h 0 W/m 1.0 C 2.3 C
18.02.2006 05:00 2.2 C 92 % 1001.6 hPa 0.6 l/m 0.1 km/h (0 Bft) O-SO 0.00 h 0 W/m 1.1 C 2.2 C
18.02.2006 06:00 2.0 C 93 % 1001.7 hPa 0.3 l/m 0.0 km/h (0 Bft) N 0.00 h 0 W/m 1.0 C 2.0 C
18.02.2006 07:00 1.5 C 95 % 1001.7 hPa 0.0 l/m 1.8 km/h (1 Bft) O-SO 0.00 h 3 W/m 0.9 C 1.0 C
18.02.2006 08:00 2.9 C 95 % 1001.9 hPa 0.0 l/m 8.2 km/h (2 Bft) S-SO 0.00 h 26 W/m 2.1 C 1.0 C
18.02.2006 09:00 4.0 C 91 % 1002.6 hPa 0.0 l/m 9.1 km/h (2 Bft) S 0.00 h 61 W/m 2.6 C 2.0 C
18.02.2006 10:00 4.8 C 77 % 1003.3 hPa 0.0 l/m 14.6 km/h (3 Bft) SO 0.07 h 114 W/m 1.2 C 1.8 C
18.02.2006 11:00 6.2 C 70 % 1003.1 hPa 0.0 l/m 14.6 km/h (3 Bft) S-SO 0.17 h 271 W/m 1.1 C 3.4 C
18.02.2006 12:00 7.0 C 67 % 1003.0 hPa 0.0 l/m 12.6 km/h (3 Bft) SO 0.03 h 243 W/m 1.3 C 4.8 C
18.02.2006 13:00 7.9 C 57 % 1002.9 hPa 0.0 l/m 11.7 km/h (2 Bft) W 0.00 h 211 W/m -0.0 C 6.2 C
18.02.2006 14:00 8.5 C 51 % 1002.1 hPa 0.0 l/m 15.3 km/h (3 Bft) W-SW 0.27 h 201 W/m -1.0 C 6.3 C
18.02.2006 15:00 10.1 C 42 % 1001.6 hPa 0.0 l/m 24.3 km/h (4 Bft) W 0.77 h 364 W/m -2.1 C 8.8 C
18.02.2006 16:00 9.4 C 41 % 1001.7 hPa 0.0 l/m 24.2 km/h (4 Bft) W 0.97 h 248 W/m -3.3 C 6.4 C
18.02.2006 17:00 8.5 C 41 % 1001.8 hPa 0.0 l/m 21.6 km/h (4 Bft) W-NW 0.40 h 65 W/m -4.0 C 5.4 C
18.02.2006 18:00 7.6 C 43 % 1002.4 hPa 0.0 l/m 21.1 km/h (4 Bft) W-NW 0.00 h 0 W/m -4.2 C 4.3 C
18.02.2006 19:00 7.5 C 47 % 1003.4 hPa 0.3 l/m 21.9 km/h (4 Bft) W 0.00 h 0 W/m -3.2 C 4.3 C
18.02.2006 20:00 5.0 C 79 % 1005.4 hPa 0.0 l/m 12.2 km/h (2 Bft) W 0.00 h 0 W/m 1.6 C 2.7 C
18.02.2006 21:00 4.7 C 81 % 1006.1 hPa 0.3 l/m 12.7 km/h (3 Bft) W 0.00 h 0 W/m 1.8 C 2.0 C
18.02.2006 22:00 4.2 C 79 % 1006.5 hPa 0.0 l/m 7.1 km/h (2 Bft) W-SW 0.00 h 0 W/m 0.9 C 2.8 C
18.02.2006 23:00 4.7 C 77 % 1006.5 hPa 0.0 l/m 7.1 km/h (2 Bft) SW 0.00 h 0 W/m 1.0 C 3.3 C
19.02.2006 00:00 3.9 C 79 % 1007.4 hPa 0.0 l/m 1.5 km/h (1 Bft) O-SO 0.00 h 0 W/m 0.6 C 3.6 C
19.02.2006 01:00 1.9 C 85 % 1007.9 hPa 0.0 l/m 1.4 km/h (1 Bft) O-SO 0.00 h 0 W/m -0.3 C 1.5 C
19.02.2006 02:00 1.3 C 88 % 1007.0 hPa 0.0 l/m 2.1 km/h (1 Bft) O-SO 0.00 h 0 W/m -0.4 C 0.8 C
19.02.2006 03:00 1.2 C 90 % 1007.0 hPa 0.0 l/m 3.7 km/h (1 Bft) O-SO 0.00 h 0 W/m -0.2 C 0.2 C
19.02.2006 04:00 -0.4 C 92 % 1006.5 hPa 0.0 l/m 0.6 km/h (0 Bft) O 0.00 h 0 W/m -1.6 C -0.4 C
19.02.2006 05:00 -0.7 C 93 % 1006.6 hPa 0.0 l/m 0.2 km/h (0 Bft) O 0.00 h 0 W/m -1.6 C -0.7 C
19.02.2006 06:00 -0.4 C 95 % 1006.0 hPa 0.0 l/m 0.1 km/h (0 Bft) O 0.00 h 0 W/m -1.1 C -0.4 C
19.02.2006 07:00 -0.7 C 96 % 1005.2 hPa 0.0 l/m 1.4 km/h (1 Bft) O 0.13 h 24 W/m -1.3 C -1.1 C
19.02.2006 08:00 -0.2 C 100 % 1005.1 hPa 0.0 l/m 0.6 km/h (0 Bft) O-SO 0.47 h 106 W/m -0.2 C -0.4 C
19.02.2006 09:00 1.4 C 100 % 1004.0 hPa 0.0 l/m 0.3 km/h (0 Bft) S-SO 0.93 h 287 W/m 1.3 C 1.3 C
19.02.2006 10:00 3.5 C 87 % 1003.2 hPa 0.0 l/m 1.3 km/h (1 Bft) W-NW 0.47 h 256 W/m 1.5 C 3.3 C
19.02.2006 11:00 5.7 C 68 % 1002.2 hPa 0.0 l/m 1.0 km/h (0 Bft) O-SO 0.33 h 259 W/m 0.2 C 5.6 C
19.02.2006 12:00 6.5 C 60 % 1001.3 hPa 0.0 l/m 4.9 km/h (1 Bft) O 0.00 h 185 W/m -0.7 C 5.7 C
19.02.2006 13:00 7.4 C 54 % 1000.1 hPa 0.0 l/m 9.7 km/h (2 Bft) O-SO 0.00 h 132 W/m -1.4 C 5.7 C
19.02.2006 14:00 7.6 C 50 % 998.6 hPa 0.0 l/m 6.6 km/h (2 Bft) O-SO 0.00 h 95 W/m -2.1 C 6.6 C
19.02.2006 15:00 8.4 C 47 % 997.3 hPa 0.0 l/m 3.4 km/h (1 Bft) O-SO 0.00 h 115 W/m -2.3 C 7.9 C
19.02.2006 16:00 8.5 C 49 % 996.1 hPa 0.0 l/m 2.9 km/h (1 Bft) NO 0.00 h 73 W/m -1.6 C 8.2 C
19.02.2006 17:00 7.6 C 52 % 995.1 hPa 0.0 l/m 0.9 km/h (0 Bft) SO 0.00 h 16 W/m -1.7 C 7.5 C
19.02.2006 18:00 6.6 C 53 % 994.8 hPa 0.0 l/m 1.2 km/h (1 Bft) N-NO 0.00 h 0 W/m -2.4 C 6.5 C
19.02.2006 19:00 5.3 C 58 % 996.2 hPa 0.0 l/m 2.7 km/h (1 Bft) O-NO 0.00 h 0 W/m -2.2 C 4.8 C
19.02.2006 20:00 6.4 C 60 % 998.6 hPa 0.0 l/m 28.1 km/h (4 Bft) W-NW 0.00 h 0 W/m -0.9 C 2.3 C
19.02.2006 21:00 5.8 C 65 % 999.0 hPa 0.0 l/m 12.4 km/h (3 Bft) W-NW 0.00 h 0 W/m -0.2 C 3.3 C
19.02.2006 22:00 5.6 C 67 % 1000.0 hPa 0.0 l/m 7.2 km/h (2 Bft) SO 0.00 h 0 W/m 0.0 C 4.0 C
19.02.2006 23:00 4.8 C 72 % 1000.2 hPa 0.0 l/m 6.4 km/h (2 Bft) SO 0.00 h 0 W/m 0.2 C 3.5 C
Min-Datum _ 13.02.06 18.02.06 16.02.06 - 13.02.06 - - - 13.02.06 13.02.06
_ Min-Zeit 01:57 15:30 17:23 - 00:00 - - - 01:57 03:33
Minimum _ -8.4 C 37 % 994.5 hPa - 0.0 km/h (0 Bft) - - - -11.7 C -12.3 C
Max-Datum _ 18.02.06 19.02.06 13.02.06 16.02.06 19.02.06 - 17.02.06 16.02.06 16.02.06 18.02.06
_ Max-Zeit 15:26 08:04 01:57 03:33 20:13 - 15:33 15:03 10:47 15:26
Maximum _ 11.2 C 100 % 1028.2 hPa 4.9 l/m 54.3 km/h
W-NW (7 Bft)
- 0.05 h 588 W/m 7.1 C 11.2 C
Durchschnitt _ 3.1 C 78 % 1008.9 hPa #53.6 l/m 6.1 km/h (2 Bft) SO #12:56 h 123 W/m -0.6 C 2.1 C
© Kaiko 2006